createdAt,value
2023-01-21T00:09:19.132Z,7.63
2023-01-21T00:19:22.187Z,9.27
2023-01-21T00:29:27.104Z,6.53
2023-01-21T00:39:30.232Z,7.87
2023-01-21T00:49:34.858Z,8.37
2023-01-21T00:59:37.914Z,7.93
2023-01-21T01:09:42.334Z,8.27
2023-01-21T01:19:45.371Z,5.93
2023-01-21T01:29:50.203Z,8.07
2023-01-21T01:39:53.302Z,7.60
2023-01-21T01:49:58.807Z,6.77
2023-01-21T02:00:04.894Z,8.23
2023-01-21T02:10:12.340Z,5.97
2023-01-21T02:21:03.404Z,6.13
2023-01-21T02:31:45.561Z,4.90
2023-01-21T02:42:04.367Z,5.73
2023-01-21T02:52:07.589Z,8.53
2023-01-21T03:02:24.175Z,7.27
2023-01-21T03:12:36.046Z,5.73
2023-01-21T03:22:41.318Z,6.57
2023-01-21T03:32:48.703Z,6.73
2023-01-21T03:42:56.178Z,3.80
2023-01-21T03:52:59.578Z,4.17
2023-01-21T04:03:04.022Z,5.77
2023-01-21T04:13:09.460Z,7.43
2023-01-21T04:23:13.932Z,4.50
2023-01-21T04:33:17.545Z,5.47
2023-01-21T04:43:22.002Z,3.70
2023-01-21T04:53:26.246Z,6.67
2023-01-21T05:03:30.633Z,5.43
2023-01-21T05:13:34.306Z,5.53
2023-01-21T05:23:38.722Z,3.67
2023-01-21T05:33:43.964Z,4.60
2023-01-21T05:43:48.362Z,3.00
2023-01-21T05:53:51.471Z,4.17
2023-01-21T06:03:56.136Z,8.30
2023-01-21T06:13:59.521Z,4.70
2023-01-21T06:24:03.960Z,4.90
2023-01-21T06:34:06.994Z,4.50
2023-01-21T06:44:11.497Z,5.53
2023-01-21T06:54:14.700Z,6.77
2023-01-21T07:04:19.126Z,4.87
2023-01-21T07:14:22.171Z,4.20
2023-01-21T07:24:26.620Z,3.93
2023-01-21T07:34:29.724Z,4.97
2023-01-21T07:44:34.726Z,5.80
2023-01-21T07:54:37.795Z,5.67
2023-01-21T08:04:42.728Z,6.03
2023-01-21T08:14:45.737Z,9.23
2023-01-21T08:24:50.121Z,7.17
2023-01-21T08:34:53.280Z,8.03
2023-01-21T08:44:57.681Z,8.07
2023-01-21T08:55:00.683Z,7.60
2023-01-21T09:05:05.522Z,7.63
2023-01-21T09:15:09.540Z,5.50
2023-01-21T09:25:14.125Z,6.77
2023-01-21T09:35:17.714Z,6.40
2023-01-21T09:45:23.126Z,8.00
2023-01-21T09:55:32.739Z,7.10
2023-01-21T10:06:08.478Z,6.33
2023-01-21T10:16:18.784Z,9.33
2023-01-21T10:26:23.614Z,8.40
2023-01-21T10:36:55.050Z,10.03
2023-01-21T10:47:06.343Z,9.40
2023-01-21T10:57:16.981Z,11.83
2023-01-21T11:07:22.979Z,11.90
2023-01-21T11:17:34.960Z,13.37
2023-01-21T11:27:40.034Z,16.70
2023-01-21T11:37:46.623Z,15.70
2023-01-21T11:47:52.448Z,16.53
2023-01-21T11:57:57.611Z,16.33
2023-01-21T12:08:03.559Z,13.30
2023-01-21T12:18:15.916Z,14.33
2023-01-21T12:28:37.749Z,15.27
2023-01-21T12:38:44.180Z,13.10
2023-01-21T12:48:53.167Z,11.70
2023-01-21T12:59:01.068Z,11.77
2023-01-21T13:09:12.677Z,11.20
2023-01-21T13:19:16.586Z,10.43
2023-01-21T13:29:27.362Z,10.47
2023-01-21T13:39:39.120Z,8.93
2023-01-21T13:50:05.837Z,10.63
2023-01-21T14:00:13.021Z,9.27
2023-01-21T14:10:24.399Z,9.00
2023-01-21T14:20:45.765Z,8.50
2023-01-21T14:30:58.676Z,10.07
2023-01-21T14:41:07.037Z,7.97
2023-01-21T14:51:22.651Z,7.87
2023-01-21T15:01:28.500Z,8.97
2023-01-21T15:11:37.665Z,9.97
2023-01-21T15:21:45.281Z,9.33
2023-01-21T15:31:49.878Z,12.97
2023-01-21T15:42:06.295Z,13.73
2023-01-21T15:52:27.192Z,14.77
2023-01-21T16:02:34.643Z,16.43
2023-01-21T16:12:49.035Z,17.93
2023-01-21T16:22:55.319Z,17.87
2023-01-21T16:33:14.352Z,17.87
2023-01-21T16:43:24.964Z,16.53
2023-01-21T16:53:29.459Z,17.43
2023-01-21T17:03:33.314Z,17.20
2023-01-21T17:13:41.549Z,15.57
2023-01-21T17:23:48.077Z,14.80
2023-01-21T17:34:22.732Z,17.33
2023-01-21T17:44:26.666Z,16.13
2023-01-21T17:54:31.117Z,15.03
2023-01-21T18:04:34.192Z,13.37
2023-01-21T18:14:38.647Z,14.17
2023-01-21T18:24:41.720Z,17.57
2023-01-21T18:34:47.183Z,16.57
2023-01-21T18:44:50.237Z,14.53
2023-01-21T18:54:54.641Z,13.60
2023-01-21T19:04:57.647Z,13.93
2023-01-21T19:15:04.755Z,14.40
2023-01-21T19:25:08.869Z,12.97
2023-01-21T19:35:15.072Z,12.23
2023-01-21T19:45:19.414Z,12.23
2023-01-21T19:55:25.574Z,13.30
2023-01-21T20:05:33.589Z,11.73
2023-01-21T20:15:38.079Z,14.37
2023-01-21T20:25:43.451Z,11.60
2023-01-21T20:35:49.434Z,12.50
2023-01-21T20:45:53.433Z,10.07
2023-01-21T20:55:58.223Z,13.67
2023-01-21T21:06:01.262Z,11.43
2023-01-21T21:16:19.618Z,12.10
2023-01-21T21:26:25.108Z,10.60
2023-01-21T21:36:29.612Z,11.73
2023-01-21T21:46:50.599Z,12.03
2023-01-21T21:56:55.075Z,9.90
2023-01-21T22:06:58.116Z,13.10
2023-01-21T22:17:02.550Z,14.23
2023-01-21T22:27:08.257Z,14.73
2023-01-21T22:37:12.694Z,13.47
2023-01-21T22:47:15.715Z,14.53
2023-01-21T22:57:20.182Z,14.60
2023-01-21T23:07:23.301Z,11.30
2023-01-21T23:17:27.788Z,11.13
2023-01-21T23:27:30.915Z,11.33
2023-01-21T23:37:35.390Z,10.90
2023-01-21T23:47:38.494Z,9.30
2023-01-21T23:57:42.912Z,11.40
